createdAt,value
2019-04-25T00:01:26.564Z,51.13
2019-04-25T00:03:56.951Z,78.27
2019-04-25T00:06:27.645Z,81.33
2019-04-25T00:08:57.779Z,99.27
2019-04-25T00:11:28.409Z,75.23
2019-04-25T00:13:58.725Z,71.77
2019-04-25T00:16:31.160Z,64.43
2019-04-25T00:19:01.893Z,51.30
2019-04-25T00:21:38.232Z,80.23
2019-04-25T00:24:16.137Z,77.30
2019-04-25T00:26:49.195Z,78.60
2019-04-25T00:29:19.371Z,94.97
2019-04-25T00:31:51.359Z,59.37
2019-04-25T00:34:21.852Z,57.60
2019-04-25T00:36:53.147Z,83.60
2019-04-25T00:39:23.512Z,81.03
2019-04-25T00:41:53.733Z,56.80
2019-04-25T00:44:23.641Z,101.33
2019-04-25T00:46:56.699Z,77.40
2019-04-25T00:49:25.753Z,83.80
2019-04-25T00:51:56.144Z,97.27
2019-04-25T00:54:26.287Z,75.73
2019-04-25T00:56:56.329Z,86.57
2019-04-25T00:59:33.223Z,134.37
2019-04-25T01:02:24.704Z,107.77
2019-04-25T01:04:55.045Z,117.47
2019-04-25T01:07:25.105Z,99.00
2019-04-25T01:09:55.263Z,82.47
2019-04-25T01:12:25.200Z,82.73
2019-04-25T01:14:55.512Z,107.40
2019-04-25T01:17:26.584Z,106.10
2019-04-25T01:19:58.051Z,106.77
2019-04-25T01:22:28.119Z,108.93
2019-04-25T01:24:58.782Z,72.33
2019-04-25T01:27:29.136Z,102.60
2019-04-25T01:29:59.644Z,112.10
2019-04-25T01:32:38.345Z,100.57
2019-04-25T01:35:30.336Z,123.37
2019-04-25T01:38:18.804Z,95.67
2019-04-25T01:40:59.848Z,76.87
2019-04-25T01:43:57.680Z,83.23
2019-04-25T01:46:29.496Z,161.30
2019-04-25T01:48:59.769Z,134.50
2019-04-25T01:51:29.970Z,88.53
2019-04-25T01:54:00.129Z,57.10
2019-04-25T01:56:30.369Z,78.63
2019-04-25T01:59:01.523Z,47.07
2019-04-25T02:01:34.039Z,57.73
2019-04-25T02:04:04.629Z,52.07
2019-04-25T02:06:35.224Z,75.50
2019-04-25T02:09:09.158Z,64.00
2019-04-25T02:11:48.852Z,63.57
2019-04-25T02:14:19.138Z,78.17
2019-04-25T02:16:49.364Z,66.43
2019-04-25T02:19:19.608Z,76.90
2019-04-25T02:21:49.857Z,49.97
2019-04-25T02:24:20.031Z,55.80
2019-04-25T02:26:50.308Z,68.20
2019-04-25T02:29:20.794Z,88.90
2019-04-25T02:31:50.761Z,54.50
2019-04-25T02:34:21.285Z,60.23
2019-04-25T02:36:51.454Z,74.83
2019-04-25T02:39:24.420Z,77.20
2019-04-25T02:42:07.417Z,84.10
2019-04-25T02:44:37.312Z,86.03
2019-04-25T02:47:26.393Z,57.00
2019-04-25T02:50:30.659Z,50.00
2019-04-25T02:53:25.048Z,72.10
2019-04-25T02:55:56.297Z,78.23
2019-04-25T02:58:26.974Z,100.00
2019-04-25T03:01:07.984Z,130.30
2019-04-25T03:03:29.590Z,79.00
2019-04-25T03:06:01.356Z,69.97
2019-04-25T03:08:32.112Z,89.50
2019-04-25T03:11:04.698Z,49.73
2019-04-25T03:13:34.690Z,56.00
2019-04-25T03:16:08.673Z,70.73
2019-04-25T03:18:44.341Z,79.33
2019-04-25T03:21:25.003Z,69.27
2019-04-25T03:23:55.396Z,79.40
2019-04-25T03:26:25.676Z,77.57
2019-04-25T03:28:55.870Z,53.80
2019-04-25T03:31:27.104Z,63.33
2019-04-25T03:33:57.703Z,75.57
2019-04-25T03:36:27.864Z,67.83
2019-04-25T03:38:58.160Z,43.57
2019-04-25T03:41:28.335Z,46.00
2019-04-25T03:43:58.806Z,58.13
2019-04-25T03:46:31.208Z,66.50
2019-04-25T03:49:02.108Z,81.43
2019-04-25T03:51:33.846Z,58.40
2019-04-25T03:54:07.172Z,55.90
2019-04-25T03:56:49.639Z,69.23
2019-04-25T03:59:10.573Z,68.07
2019-04-25T04:01:40.576Z,74.83
2019-04-25T04:04:11.125Z,84.97
2019-04-25T04:06:41.504Z,54.67
2019-04-25T04:09:11.828Z,59.13
2019-04-25T04:11:43.524Z,68.27
2019-04-25T04:14:15.407Z,68.60
2019-04-25T04:17:05.097Z,49.23
2019-04-25T04:19:43.570Z,54.50
2019-04-25T04:22:25.124Z,57.23
2019-04-25T04:24:57.172Z,37.00
2019-04-25T04:27:27.882Z,60.20
2019-04-25T04:29:57.941Z,36.50
2019-04-25T04:32:27.877Z,50.97
2019-04-25T04:34:58.378Z,42.30
2019-04-25T04:37:28.430Z,49.63
2019-04-25T04:39:58.508Z,50.23
2019-04-25T04:42:28.575Z,45.93
2019-04-25T04:44:58.732Z,59.40
2019-04-25T04:47:28.752Z,52.97
2019-04-25T04:49:59.120Z,47.97
2019-04-25T04:52:30.235Z,55.50
2019-04-25T04:55:06.497Z,55.97
2019-04-25T04:57:35.821Z,73.27
2019-04-25T05:00:03.770Z,55.17
2019-04-25T05:02:49.853Z,44.87
2019-04-25T05:05:38.727Z,30.53
2019-04-25T05:08:16.432Z,54.00
2019-04-25T05:10:47.264Z,28.13
2019-04-25T05:13:17.986Z,39.30
2019-04-25T05:15:48.063Z,58.30
2019-04-25T05:18:32.991Z,33.43
2019-04-25T05:20:49.665Z,39.43
2019-04-25T05:23:19.697Z,44.87
2019-04-25T05:25:49.828Z,57.13
2019-04-25T05:28:20.972Z,49.73
2019-04-25T05:31:07.835Z,51.63
2019-04-25T05:33:38.408Z,61.67
2019-04-25T05:36:08.845Z,53.63
2019-04-25T05:38:38.904Z,40.23
2019-04-25T05:41:20.291Z,39.87
2019-04-25T05:43:50.472Z,52.97
2019-04-25T05:46:25.201Z,56.17
2019-04-25T05:48:55.308Z,54.60
2019-04-25T05:51:25.976Z,53.87
2019-04-25T05:53:56.361Z,46.87
2019-04-25T05:56:28.002Z,51.80
2019-04-25T05:58:58.056Z,57.53
2019-04-25T06:01:30.103Z,45.80
2019-04-25T06:04:00.765Z,52.80
2019-04-25T06:06:30.773Z,43.50
2019-04-25T06:09:15.567Z,69.53
2019-04-25T06:11:54.660Z,49.67
2019-04-25T06:14:26.013Z,74.97
2019-04-25T06:16:59.196Z,49.20
2019-04-25T06:19:43.515Z,47.07
2019-04-25T06:22:19.536Z,56.93
2019-04-25T06:24:54.826Z,66.43
2019-04-25T06:27:35.081Z,65.63
2019-04-25T06:30:25.968Z,79.80
2019-04-25T06:32:58.349Z,52.03
2019-04-25T06:35:29.429Z,47.70
2019-04-25T06:37:59.538Z,49.00
2019-04-25T06:40:30.695Z,57.47
2019-04-25T06:43:00.924Z,55.20
2019-04-25T06:45:50.194Z,64.83
2019-04-25T06:48:40.145Z,59.63
2019-04-25T06:51:10.591Z,49.07
2019-04-25T06:53:40.663Z,60.40
2019-04-25T06:56:10.688Z,46.53
2019-04-25T06:58:40.852Z,64.57
2019-04-25T07:01:11.043Z,62.23
2019-04-25T07:03:41.603Z,59.20
2019-04-25T07:06:12.915Z,64.23
2019-04-25T07:08:44.721Z,60.03
2019-04-25T07:11:15.092Z,64.93
2019-04-25T07:13:45.114Z,68.83
2019-04-25T07:16:16.364Z,60.63
2019-04-25T07:18:46.532Z,61.83
2019-04-25T07:21:16.553Z,60.77
2019-04-25T07:23:46.660Z,65.10
2019-04-25T07:26:39.586Z,54.10
2019-04-25T07:29:30.545Z,51.10
2019-04-25T07:32:24.622Z,71.63
2019-04-25T07:34:55.167Z,54.27
2019-04-25T07:37:26.053Z,62.90
2019-04-25T07:39:56.080Z,64.40
2019-04-25T07:42:26.125Z,52.93
2019-04-25T07:44:56.073Z,49.80
2019-04-25T07:47:26.856Z,61.67
2019-04-25T07:49:57.201Z,56.17
2019-04-25T07:52:27.250Z,64.20
2019-04-25T07:54:57.317Z,60.43
2019-04-25T07:57:28.027Z,54.83
2019-04-25T07:59:57.967Z,60.33
2019-04-25T08:02:28.136Z,55.43
2019-04-25T08:05:00.103Z,61.83
2019-04-25T08:07:30.208Z,67.10
2019-04-25T08:10:00.188Z,67.83
2019-04-25T08:12:30.505Z,81.07
2019-04-25T08:15:08.386Z,48.43
2019-04-25T08:17:56.992Z,55.83
2019-04-25T08:20:29.105Z,57.07
2019-04-25T08:23:01.435Z,59.30
2019-04-25T08:25:33.479Z,75.40
2019-04-25T08:28:03.863Z,79.90
2019-04-25T08:30:35.424Z,63.97
2019-04-25T08:33:06.049Z,44.57
2019-04-25T08:35:36.531Z,87.37
2019-04-25T08:38:06.991Z,67.13
2019-04-25T08:40:38.607Z,84.30
2019-04-25T08:43:09.025Z,79.87
2019-04-25T08:45:39.746Z,66.47
2019-04-25T08:48:10.083Z,114.87
2019-04-25T08:51:03.571Z,75.50
2019-04-25T08:53:41.046Z,101.90
2019-04-25T08:56:18.426Z,62.70
2019-04-25T08:59:07.981Z,60.97
2019-04-25T09:01:53.559Z,85.10
2019-04-25T09:04:40.130Z,87.33
2019-04-25T09:07:10.529Z,83.27
2019-04-25T09:09:41.156Z,117.73
2019-04-25T09:12:11.312Z,172.23
2019-04-25T09:14:41.576Z,131.40
2019-04-25T09:17:11.660Z,143.37
2019-04-25T09:19:42.003Z,85.00
2019-04-25T09:22:13.257Z,63.63
2019-04-25T09:24:44.409Z,119.43
2019-04-25T09:27:15.444Z,148.20
2019-04-25T09:29:46.321Z,160.83
2019-04-25T09:32:17.475Z,159.53
2019-04-25T09:34:48.101Z,155.83
2019-04-25T09:37:18.092Z,117.57
2019-04-25T09:39:59.687Z,200.63
2019-04-25T09:42:29.944Z,191.63
2019-04-25T09:45:17.347Z,196.40
2019-04-25T09:47:48.538Z,169.20
2019-04-25T09:50:41.464Z,127.87
2019-04-25T09:53:21.847Z,130.63
2019-04-25T09:55:51.164Z,103.80
2019-04-25T09:58:27.570Z,58.37
2019-04-25T10:01:05.759Z,68.43
2019-04-25T10:03:36.687Z,74.70
2019-04-25T10:06:07.831Z,98.70
2019-04-25T10:08:38.717Z,81.57
2019-04-25T10:11:08.927Z,74.50
2019-04-25T10:13:40.015Z,99.63
2019-04-25T10:16:12.597Z,131.43
2019-04-25T10:18:43.746Z,123.37
2019-04-25T10:21:15.204Z,104.80
2019-04-25T10:23:46.623Z,90.60
2019-04-25T10:26:18.060Z,81.37
2019-04-25T10:28:48.104Z,84.00
2019-04-25T10:31:18.159Z,140.13
2019-04-25T10:33:48.667Z,76.97
2019-04-25T10:36:19.360Z,78.27
2019-04-25T10:39:01.988Z,69.57
2019-04-25T10:41:21.792Z,69.10
2019-04-25T10:43:54.171Z,104.57
2019-04-25T10:46:24.481Z,110.57
2019-04-25T10:48:56.233Z,156.50
2019-04-25T10:51:26.578Z,121.47
2019-04-25T10:53:56.599Z,111.17
2019-04-25T10:56:26.664Z,137.80
2019-04-25T10:58:56.635Z,107.03
2019-04-25T11:01:27.065Z,84.33
2019-04-25T11:04:18.610Z,100.50
2019-04-25T11:06:49.340Z,110.17
2019-04-25T11:09:27.332Z,94.23
2019-04-25T11:11:57.550Z,151.60
2019-04-25T11:14:30.069Z,154.73
2019-04-25T11:17:00.388Z,124.27
2019-04-25T11:19:30.500Z,114.53
2019-04-25T11:22:00.472Z,93.90
2019-04-25T11:24:30.501Z,136.07
2019-04-25T11:27:00.737Z,121.23
2019-04-25T11:29:30.917Z,105.53
2019-04-25T11:32:01.216Z,116.10
2019-04-25T11:34:31.356Z,112.40
2019-04-25T11:37:03.679Z,76.23
2019-04-25T11:39:53.151Z,105.43
2019-04-25T11:42:24.656Z,106.13
2019-04-25T11:44:55.593Z,101.63
2019-04-25T11:47:26.011Z,101.53
2019-04-25T11:49:56.464Z,118.07
2019-04-25T11:52:29.548Z,96.00
2019-04-25T11:54:58.297Z,96.73
2019-04-25T11:57:28.432Z,114.83
2019-04-25T11:59:58.396Z,156.23
2019-04-25T12:02:28.787Z,179.47
2019-04-25T12:04:58.933Z,169.33
2019-04-25T12:07:29.124Z,169.33
2019-04-25T12:09:59.233Z,153.43
2019-04-25T12:12:29.220Z,188.20
2019-04-25T12:15:00.429Z,174.13
2019-04-25T12:17:30.507Z,149.00
2019-04-25T12:20:00.574Z,121.17
2019-04-25T12:22:30.585Z,81.33
2019-04-25T12:25:00.905Z,64.33
2019-04-25T12:27:31.113Z,66.83
2019-04-25T12:30:01.212Z,190.53
2019-04-25T12:32:31.245Z,67.80
2019-04-25T12:35:01.262Z,93.20
2019-04-25T12:37:31.220Z,122.93
2019-04-25T12:40:02.452Z,150.17
2019-04-25T12:42:34.339Z,109.60
2019-04-25T12:45:20.658Z,204.93
2019-04-25T12:47:51.247Z,140.00
2019-04-25T12:50:23.067Z,148.67
2019-04-25T12:52:54.717Z,125.00
2019-04-25T12:55:25.037Z,120.50
2019-04-25T12:57:56.433Z,119.33
2019-04-25T13:00:27.798Z,85.03
2019-04-25T13:02:58.691Z,79.70
2019-04-25T13:05:29.401Z,68.27
2019-04-25T13:08:01.107Z,56.47
2019-04-25T13:10:31.204Z,75.10
2019-04-25T13:13:01.712Z,35.77
2019-04-25T13:15:33.362Z,24.63
2019-04-25T13:18:03.688Z,65.87
2019-04-25T13:20:33.712Z,44.73
2019-04-25T13:23:05.846Z,27.70
2019-04-25T13:25:36.093Z,50.03
2019-04-25T13:28:18.877Z,74.40
2019-04-25T13:31:14.103Z,60.00
2019-04-25T13:33:59.894Z,42.83
2019-04-25T13:36:29.885Z,75.47
2019-04-25T13:38:59.956Z,44.27
2019-04-25T13:41:29.944Z,38.47
2019-04-25T13:44:00.890Z,20.90
2019-04-25T13:46:32.210Z,79.40
2019-04-25T13:49:04.289Z,49.10
2019-04-25T13:51:34.424Z,130.03
2019-04-25T13:54:05.412Z,92.40
2019-04-25T13:56:40.280Z,53.07
2019-04-25T13:59:07.488Z,84.57
2019-04-25T14:01:38.398Z,92.37
2019-04-25T14:04:08.904Z,35.33
2019-04-25T14:06:39.093Z,45.63
2019-04-25T14:09:13.656Z,42.50
2019-04-25T14:11:44.219Z,17.57
2019-04-25T14:14:15.409Z,43.90
2019-04-25T14:17:06.811Z,30.10
2019-04-25T14:20:00.061Z,31.80
2019-04-25T14:22:30.689Z,14.33
2019-04-25T14:25:00.782Z,62.90
2019-04-25T14:27:30.913Z,81.27
2019-04-25T14:30:01.322Z,48.00
2019-04-25T14:32:33.504Z,37.97
2019-04-25T14:35:03.663Z,17.33
2019-04-25T14:37:39.426Z,13.33
2019-04-25T14:40:06.811Z,60.17
2019-04-25T14:42:37.349Z,68.30
2019-04-25T14:45:08.680Z,62.27
2019-04-25T14:47:38.813Z,25.63
2019-04-25T14:50:09.532Z,37.43
2019-04-25T14:52:39.550Z,73.13
2019-04-25T14:55:40.820Z,56.30
2019-04-25T14:58:15.599Z,58.63
2019-04-25T15:00:46.908Z,62.60
2019-04-25T15:03:17.002Z,43.23
2019-04-25T15:05:47.076Z,53.03
2019-04-25T15:08:17.209Z,56.77
2019-04-25T15:10:48.491Z,46.37
2019-04-25T15:13:18.817Z,47.27
2019-04-25T15:15:49.372Z,44.60
2019-04-25T15:18:19.796Z,41.43
2019-04-25T15:20:49.870Z,71.63
2019-04-25T15:23:19.928Z,94.13
2019-04-25T15:25:50.253Z,101.53
2019-04-25T15:28:20.466Z,67.80
2019-04-25T15:30:51.179Z,70.23
2019-04-25T15:33:21.560Z,64.50
2019-04-25T15:36:07.568Z,54.40
2019-04-25T15:38:46.596Z,41.23
2019-04-25T15:41:30.642Z,42.83
2019-04-25T15:44:28.652Z,42.37
2019-04-25T15:47:00.179Z,55.50
2019-04-25T15:49:31.208Z,30.60
2019-04-25T15:52:01.264Z,43.00
2019-04-25T15:54:31.732Z,29.90
2019-04-25T15:57:01.908Z,31.80
2019-04-25T15:59:32.759Z,59.43
2019-04-25T16:02:08.213Z,32.50
2019-04-25T16:04:36.085Z,15.73
2019-04-25T16:07:08.960Z,24.63
2019-04-25T16:09:39.274Z,16.27
2019-04-25T16:12:10.280Z,14.60
2019-04-25T16:14:41.232Z,18.77
2019-04-25T16:17:11.417Z,24.87
2019-04-25T16:19:41.385Z,18.73
2019-04-25T16:22:11.420Z,18.93
2019-04-25T16:24:41.588Z,28.10
2019-04-25T16:27:12.096Z,12.33
2019-04-25T16:29:42.738Z,22.37
2019-04-25T16:32:20.739Z,20.87
2019-04-25T16:34:49.516Z,22.70
2019-04-25T16:37:19.547Z,27.07
2019-04-25T16:39:49.661Z,21.53
2019-04-25T16:42:30.251Z,19.47
2019-04-25T16:45:00.796Z,34.87
2019-04-25T16:47:33.059Z,24.27
2019-04-25T16:50:07.965Z,21.93
2019-04-25T16:52:38.410Z,26.20
2019-04-25T16:55:10.481Z,33.90
2019-04-25T16:57:40.469Z,20.77
2019-04-25T17:00:21.320Z,28.80
2019-04-25T17:02:51.344Z,20.10
2019-04-25T17:05:21.782Z,30.13
2019-04-25T17:07:51.835Z,18.73
2019-04-25T17:10:22.753Z,12.30
2019-04-25T17:12:52.902Z,20.00
2019-04-25T17:15:36.234Z,17.87
2019-04-25T17:18:16.764Z,12.97
2019-04-25T17:21:01.760Z,15.63
2019-04-25T17:23:32.411Z,17.20
2019-04-25T17:26:03.702Z,21.13
2019-04-25T17:28:37.047Z,36.07
2019-04-25T17:31:28.980Z,21.20
2019-04-25T17:34:24.121Z,21.73
2019-04-25T17:37:18.956Z,18.10
2019-04-25T17:39:53.032Z,25.43
2019-04-25T17:42:23.708Z,23.67
2019-04-25T17:44:54.151Z,17.67
2019-04-25T17:47:24.650Z,23.63
2019-04-25T17:49:54.717Z,28.27
2019-04-25T17:52:25.522Z,15.40
2019-04-25T17:54:55.867Z,21.50
2019-04-25T17:57:26.039Z,16.07
2019-04-25T17:59:56.219Z,19.80
2019-04-25T18:02:26.957Z,20.83
2019-04-25T18:04:57.168Z,14.30
2019-04-25T18:07:27.322Z,8.10
2019-04-25T18:09:57.455Z,18.30
2019-04-25T18:12:28.453Z,26.13
2019-04-25T18:15:00.811Z,34.17
2019-04-25T18:17:30.891Z,33.73
2019-04-25T18:20:07.601Z,11.83
2019-04-25T18:22:46.512Z,20.43
2019-04-25T18:25:41.367Z,14.47
2019-04-25T18:28:26.316Z,21.20
2019-04-25T18:30:57.230Z,17.70
2019-04-25T18:33:30.735Z,22.87
2019-04-25T18:36:24.867Z,10.23
2019-04-25T18:39:08.651Z,15.20
2019-04-25T18:41:44.121Z,16.13
2019-04-25T18:44:14.949Z,14.07
2019-04-25T18:46:47.169Z,19.60
2019-04-25T18:49:17.800Z,10.43
2019-04-25T18:51:56.488Z,20.73
2019-04-25T18:54:48.016Z,13.50
2019-04-25T18:57:40.436Z,24.13
2019-04-25T19:00:47.949Z,15.93
2019-04-25T19:03:43.642Z,13.20
2019-04-25T19:06:16.194Z,9.87
2019-04-25T19:08:47.090Z,17.17
2019-04-25T19:11:17.415Z,12.57
2019-04-25T19:13:52.096Z,23.33
2019-04-25T19:16:22.412Z,13.40
2019-04-25T19:18:52.600Z,13.30
2019-04-25T19:21:22.978Z,15.70
2019-04-25T19:23:53.843Z,19.13
2019-04-25T19:26:23.908Z,12.53
2019-04-25T19:28:53.936Z,23.03
2019-04-25T19:31:24.363Z,22.30
2019-04-25T19:33:54.858Z,14.07
2019-04-25T19:36:25.108Z,20.87
2019-04-25T19:38:55.393Z,14.13
2019-04-25T19:41:31.563Z,10.83
2019-04-25T19:44:07.744Z,5.70
2019-04-25T19:46:41.227Z,9.43
2019-04-25T19:49:11.819Z,9.57
2019-04-25T19:51:42.999Z,9.43
2019-04-25T19:54:13.585Z,3.50
2019-04-25T19:56:44.018Z,10.27
2019-04-25T19:59:14.537Z,4.40
2019-04-25T20:01:45.949Z,15.57
2019-04-25T20:04:38.810Z,8.33
2019-04-25T20:07:26.019Z,2.60
2019-04-25T20:10:22.083Z,2.83
2019-04-25T20:12:54.858Z,10.07
2019-04-25T20:15:25.826Z,8.33
2019-04-25T20:17:56.574Z,6.10
2019-04-25T20:20:26.909Z,3.53
2019-04-25T20:22:57.641Z,3.77
2019-04-25T20:25:27.812Z,9.50
2019-04-25T20:27:58.495Z,2.60
2019-04-25T20:30:28.714Z,3.40
2019-04-25T20:33:00.511Z,3.83
2019-04-25T20:35:39.260Z,1.83
2019-04-25T20:38:10.120Z,7.70
2019-04-25T20:40:40.251Z,9.40
2019-04-25T20:43:10.419Z,4.83
2019-04-25T20:45:40.778Z,3.60
2019-04-25T20:48:11.086Z,3.67
2019-04-25T20:50:40.995Z,3.67
2019-04-25T20:53:11.020Z,13.50
2019-04-25T20:55:41.149Z,4.13
2019-04-25T20:58:11.612Z,10.10
2019-04-25T21:00:45.066Z,1.87
2019-04-25T21:03:15.652Z,17.40
2019-04-25T21:05:46.836Z,2.03
2019-04-25T21:08:16.887Z,5.57
2019-04-25T21:10:46.861Z,7.90
2019-04-25T21:13:21.802Z,5.37
2019-04-25T21:15:59.652Z,2.33
2019-04-25T21:18:44.420Z,1.50
2019-04-25T21:21:15.107Z,1.57
2019-04-25T21:23:45.572Z,1.97
2019-04-25T21:26:15.712Z,2.10
2019-04-25T21:28:45.707Z,2.60
2019-04-25T21:31:16.138Z,2.67
2019-04-25T21:33:46.193Z,3.50
2019-04-25T21:36:16.689Z,2.50
2019-04-25T21:38:47.317Z,9.83
2019-04-25T21:41:25.807Z,3.57
2019-04-25T21:44:00.876Z,3.90
2019-04-25T21:46:31.472Z,2.30
2019-04-25T21:49:03.075Z,1.83
2019-04-25T21:51:33.497Z,3.40
2019-04-25T21:54:04.978Z,1.60
2019-04-25T21:56:35.872Z,4.20
2019-04-25T21:59:06.596Z,2.17
2019-04-25T22:01:39.811Z,2.30
2019-04-25T22:04:10.384Z,4.37
2019-04-25T22:06:40.876Z,1.73
2019-04-25T22:09:17.560Z,5.83
2019-04-25T22:11:48.696Z,13.13
2019-04-25T22:14:19.477Z,2.23
2019-04-25T22:16:49.868Z,17.57
2019-04-25T22:19:20.492Z,5.53
2019-04-25T22:21:50.712Z,3.10
2019-04-25T22:24:22.523Z,2.73
2019-04-25T22:26:54.579Z,8.67
2019-04-25T22:29:24.652Z,1.50
2019-04-25T22:32:02.397Z,1.87
2019-04-25T22:34:52.049Z,2.90
2019-04-25T22:37:16.867Z,1.33
2019-04-25T22:39:47.571Z,5.63
2019-04-25T22:42:17.853Z,6.50
2019-04-25T22:44:48.015Z,2.27
2019-04-25T22:47:18.844Z,1.93
2019-04-25T22:49:49.521Z,1.50
2019-04-25T22:52:19.808Z,1.50
2019-04-25T22:54:49.748Z,1.40
2019-04-25T22:57:19.940Z,3.10
2019-04-25T22:59:49.967Z,2.77
2019-04-25T23:02:29.123Z,3.97
2019-04-25T23:05:10.723Z,2.80
2019-04-25T23:07:36.666Z,1.30
2019-04-25T23:10:08.305Z,2.87
2019-04-25T23:12:38.596Z,3.83
2019-04-25T23:15:08.943Z,3.83
2019-04-25T23:17:39.327Z,2.20
2019-04-25T23:20:09.819Z,3.13
2019-04-25T23:22:40.299Z,3.07
2019-04-25T23:25:12.505Z,1.40
2019-04-25T23:27:49.834Z,1.20
2019-04-25T23:30:21.683Z,1.37
2019-04-25T23:32:52.092Z,3.70
2019-04-25T23:35:29.282Z,10.43
2019-04-25T23:37:53.846Z,1.27
2019-04-25T23:40:23.892Z,1.70
2019-04-25T23:42:54.384Z,2.43
2019-04-25T23:45:24.353Z,1.00
2019-04-25T23:47:54.428Z,2.03
2019-04-25T23:50:24.738Z,11.73
2019-04-25T23:52:55.061Z,1.47
2019-04-25T23:55:25.197Z,5.00
2019-04-25T23:57:55.215Z,3.87
